createdAt,value
2022-08-05T00:00:53.003Z,52.16
2022-08-05T00:03:56.733Z,52.47
2022-08-05T00:07:00.456Z,52.45
2022-08-05T00:10:27.139Z,52.38
2022-08-05T00:13:38.864Z,52.41
2022-08-05T00:16:52.409Z,52.04
2022-08-05T00:20:02.646Z,51.84
2022-08-05T00:23:12.466Z,52.04
2022-08-05T00:26:16.667Z,52.35
2022-08-05T00:29:22.394Z,52.74
2022-08-05T00:32:25.751Z,52.88
2022-08-05T00:35:33.355Z,52.76
2022-08-05T00:38:36.374Z,52.60
2022-08-05T00:41:52.085Z,52.75
2022-08-05T00:44:58.570Z,53.33
2022-08-05T00:48:05.214Z,53.29
2022-08-05T00:51:08.999Z,53.41
2022-08-05T00:54:31.920Z,53.58
2022-08-05T00:57:55.568Z,53.81
2022-08-05T01:00:58.096Z,54.07
2022-08-05T01:04:01.400Z,54.16
2022-08-05T01:07:05.140Z,54.25
2022-08-05T01:10:11.509Z,53.99
2022-08-05T01:13:22.356Z,54.44
2022-08-05T01:16:49.140Z,54.60
2022-08-05T01:20:03.572Z,54.68
2022-08-05T01:23:34.841Z,54.74
2022-08-05T01:26:56.530Z,54.77
2022-08-05T01:30:04.165Z,55.13
2022-08-05T01:33:10.673Z,55.33
2022-08-05T01:36:15.933Z,55.54
2022-08-05T01:39:45.601Z,55.84
2022-08-05T01:42:44.516Z,56.35
2022-08-05T01:45:47.773Z,56.10
2022-08-05T01:49:02.172Z,55.97
2022-08-05T01:52:27.100Z,56.08
2022-08-05T01:55:32.666Z,56.30
2022-08-05T01:58:45.191Z,57.17
2022-08-05T02:01:56.203Z,57.83
2022-08-05T02:05:05.244Z,57.60
2022-08-05T02:08:14.939Z,57.55
2022-08-05T02:11:55.624Z,57.16
2022-08-05T02:15:12.048Z,56.72
2022-08-05T02:18:31.171Z,57.24
2022-08-05T02:21:46.754Z,57.77
2022-08-05T02:24:56.028Z,57.41
2022-08-05T02:28:00.490Z,57.26
2022-08-05T02:31:16.632Z,57.58
2022-08-05T02:34:27.562Z,57.48
2022-08-05T02:37:33.977Z,57.52
2022-08-05T02:40:41.874Z,57.57
2022-08-05T02:44:06.125Z,57.49
2022-08-05T02:47:15.059Z,57.75
2022-08-05T02:50:19.584Z,57.38
2022-08-05T02:53:24.117Z,57.59
2022-08-05T02:56:28.844Z,57.58
2022-08-05T02:59:50.705Z,57.87
2022-08-05T03:02:58.203Z,57.96
2022-08-05T03:06:56.560Z,57.96
2022-08-05T03:09:36.415Z,58.29
2022-08-05T03:12:41.707Z,58.67
2022-08-05T03:15:47.789Z,59.01
2022-08-05T03:18:51.295Z,58.94
2022-08-05T03:21:55.224Z,58.93
2022-08-05T03:24:58.650Z,59.04
2022-08-05T03:28:18.503Z,58.97
2022-08-05T03:31:55.587Z,58.81
2022-08-05T03:34:50.618Z,58.62
2022-08-05T03:38:00.087Z,58.63
2022-08-05T03:41:04.013Z,58.97
2022-08-05T03:44:12.032Z,58.98
2022-08-05T03:47:15.339Z,59.59
2022-08-05T03:50:18.875Z,59.76
2022-08-05T03:55:06.692Z,60.08
2022-08-05T03:56:59.950Z,59.78
2022-08-05T04:00:08.224Z,59.26
2022-08-05T04:03:28.542Z,59.34
2022-08-05T04:06:35.147Z,59.60
2022-08-05T04:09:38.928Z,59.33
2022-08-05T04:12:59.015Z,59.17
2022-08-05T04:16:04.597Z,59.25
2022-08-05T04:19:12.658Z,59.14
2022-08-05T04:22:15.669Z,58.91
2022-08-05T04:25:57.759Z,59.03
2022-08-05T04:28:51.705Z,58.47
2022-08-05T04:31:56.723Z,58.02
2022-08-05T04:34:59.779Z,58.03
2022-08-05T04:38:06.746Z,57.90
2022-08-05T04:41:10.648Z,57.33
2022-08-05T04:44:14.326Z,56.97
2022-08-05T04:47:20.375Z,56.44
2022-08-05T04:50:37.264Z,56.24
2022-08-05T04:53:46.620Z,55.87
2022-08-05T04:56:49.744Z,55.33
2022-08-05T04:59:52.499Z,55.24
2022-08-05T05:02:59.142Z,54.92
2022-08-05T05:06:39.233Z,54.61
2022-08-05T05:09:33.680Z,53.80
2022-08-05T05:12:40.301Z,53.70
2022-08-05T05:15:54.277Z,53.38
2022-08-05T05:19:18.090Z,52.94
2022-08-05T05:22:26.618Z,52.50
2022-08-05T05:25:37.233Z,52.23
2022-08-05T05:28:45.087Z,51.75
2022-08-05T05:31:48.080Z,51.67
2022-08-05T05:34:52.307Z,50.64
2022-08-05T05:37:59.760Z,50.38
2022-08-05T05:41:04.785Z,49.56
2022-08-05T05:44:36.898Z,47.29
2022-08-05T05:48:06.480Z,45.89
2022-08-05T05:50:58.507Z,44.93
2022-08-05T05:54:18.293Z,45.58
2022-08-05T05:57:22.643Z,44.54
2022-08-05T06:00:27.762Z,43.73
2022-08-05T06:03:53.789Z,43.40
2022-08-05T06:07:01.536Z,42.79
2022-08-05T06:10:10.136Z,42.41
2022-08-05T06:13:13.701Z,41.26
2022-08-05T06:16:29.348Z,41.77
2022-08-05T06:19:35.689Z,41.35
2022-08-05T06:22:40.449Z,40.60
2022-08-05T06:26:13.360Z,40.58
2022-08-05T06:29:23.827Z,39.40
2022-08-05T06:32:29.510Z,39.38
2022-08-05T06:36:04.191Z,38.25
2022-08-05T06:38:55.815Z,38.45
2022-08-05T06:42:04.044Z,38.29
2022-08-05T06:45:09.169Z,38.69
2022-08-05T06:48:52.777Z,38.46
2022-08-05T06:51:35.572Z,38.46
2022-08-05T06:54:43.756Z,37.89
2022-08-05T06:57:57.360Z,37.20
2022-08-05T07:01:07.012Z,37.38
2022-08-05T07:04:10.221Z,37.00
2022-08-05T07:07:13.325Z,36.55
2022-08-05T07:10:18.400Z,36.12
2022-08-05T07:13:58.116Z,36.40
2022-08-05T07:17:58.838Z,35.98
2022-08-05T07:20:36.273Z,35.50
2022-08-05T07:23:49.786Z,35.67
2022-08-05T07:26:53.361Z,34.78
2022-08-05T07:30:24.260Z,34.89
2022-08-05T07:33:36.728Z,35.42
2022-08-05T07:36:40.857Z,35.08
2022-08-05T07:40:26.623Z,34.41
2022-08-05T07:43:20.319Z,34.87
2022-08-05T07:46:28.266Z,34.89
2022-08-05T07:49:31.842Z,34.49
2022-08-05T07:52:46.760Z,34.44
2022-08-05T07:56:06.554Z,33.97
2022-08-05T07:59:13.675Z,33.47
2022-08-05T08:02:18.074Z,33.57
2022-08-05T08:05:21.592Z,33.24
2022-08-05T08:08:24.504Z,32.12
2022-08-05T08:11:47.853Z,31.89
2022-08-05T08:14:53.130Z,31.45
2022-08-05T08:17:56.300Z,31.24
2022-08-05T08:21:09.840Z,30.47
2022-08-05T08:24:19.206Z,29.55
2022-08-05T08:27:23.393Z,29.07
2022-08-05T08:30:47.870Z,29.89
2022-08-05T08:33:53.145Z,29.33
2022-08-05T08:37:03.166Z,29.30
2022-08-05T08:40:08.289Z,29.45
2022-08-05T08:44:54.757Z,28.93
2022-08-05T08:46:36.567Z,28.79
2022-08-05T08:50:22.856Z,28.89
2022-08-05T08:53:12.450Z,28.82
2022-08-05T08:56:17.497Z,28.33
2022-08-05T08:59:21.115Z,28.33
2022-08-05T09:02:26.808Z,28.03
2022-08-05T09:05:38.586Z,27.98
2022-08-05T09:08:53.017Z,27.95
2022-08-05T09:11:59.323Z,27.43
2022-08-05T09:15:09.643Z,26.95
2022-08-05T09:18:13.404Z,26.67
2022-08-05T09:21:20.940Z,27.12
2022-08-05T09:24:39.819Z,27.03
2022-08-05T09:28:04.385Z,27.17
2022-08-05T09:31:22.753Z,26.17
2022-08-05T09:34:48.441Z,26.11
2022-08-05T09:38:13.002Z,26.02
2022-08-05T09:41:17.619Z,25.99
2022-08-05T09:44:37.277Z,25.74
2022-08-05T09:47:55.542Z,25.07
2022-08-05T09:51:14.920Z,24.51
2022-08-05T09:54:31.270Z,24.80
2022-08-05T09:57:43.230Z,24.55
2022-08-05T10:01:01.980Z,24.51
2022-08-05T10:04:17.483Z,23.70
2022-08-05T10:08:10.723Z,24.08
2022-08-05T10:10:44.568Z,23.84
2022-08-05T10:13:49.343Z,23.80
2022-08-05T10:16:56.318Z,23.24
2022-08-05T10:20:04.021Z,23.58
2022-08-05T10:23:21.805Z,23.42
2022-08-05T10:26:48.963Z,23.36
2022-08-05T10:30:06.854Z,23.53
2022-08-05T10:33:15.720Z,23.46
2022-08-05T10:36:23.657Z,23.15
2022-08-05T10:39:59.069Z,22.47
2022-08-05T10:43:35.597Z,21.93
2022-08-05T10:46:50.914Z,22.16
2022-08-05T10:50:32.473Z,21.87
2022-08-05T10:53:53.314Z,21.61
2022-08-05T10:56:57.708Z,21.11
2022-08-05T11:00:23.208Z,20.97
2022-08-05T11:03:27.462Z,21.04
2022-08-05T11:06:31.408Z,21.43
2022-08-05T11:09:48.753Z,21.17
2022-08-05T11:12:55.251Z,21.30
2022-08-05T11:16:22.228Z,21.33
2022-08-05T11:20:09.937Z,21.18
2022-08-05T11:23:33.454Z,20.74
2022-08-05T11:26:36.892Z,20.80
2022-08-05T11:29:41.088Z,20.83
2022-08-05T11:32:43.888Z,20.74
2022-08-05T11:36:07.719Z,20.52
2022-08-05T11:39:15.099Z,20.79
2022-08-05T11:42:27.901Z,20.68
2022-08-05T11:46:30.749Z,20.96
2022-08-05T11:48:55.824Z,21.19
2022-08-05T11:51:59.769Z,21.03
2022-08-05T11:55:07.283Z,20.93
2022-08-05T11:58:11.992Z,20.94
2022-08-05T12:01:25.145Z,20.97
2022-08-05T12:04:38.960Z,20.78
2022-08-05T12:08:09.295Z,20.64
2022-08-05T12:11:20.513Z,20.39
2022-08-05T12:14:25.472Z,20.94
2022-08-05T12:18:03.850Z,21.09
2022-08-05T12:21:19.568Z,20.44
2022-08-05T12:24:24.625Z,20.43
2022-08-05T12:27:33.235Z,20.64
2022-08-05T12:30:45.790Z,20.24
2022-08-05T12:33:49.935Z,20.27
2022-08-05T12:36:54.192Z,19.94
2022-08-05T12:40:03.007Z,20.40
2022-08-05T12:43:07.543Z,20.19
2022-08-05T12:46:24.876Z,19.90
2022-08-05T12:50:04.166Z,20.08
2022-08-05T12:53:15.568Z,19.84
2022-08-05T12:56:35.016Z,20.07
2022-08-05T13:00:08.890Z,19.73
2022-08-05T13:03:12.301Z,20.34
2022-08-05T13:06:18.234Z,19.70
2022-08-05T13:09:28.223Z,20.24
2022-08-05T13:12:31.733Z,19.97
2022-08-05T13:15:41.810Z,19.91
2022-08-05T13:18:58.776Z,19.63
2022-08-05T13:22:02.164Z,19.26
2022-08-05T13:25:19.412Z,19.30
2022-08-05T13:28:25.453Z,19.13
2022-08-05T13:31:33.723Z,19.80
2022-08-05T13:34:51.951Z,19.99
2022-08-05T13:37:55.333Z,20.41
2022-08-05T13:41:00.245Z,19.67
2022-08-05T13:44:03.880Z,19.11
2022-08-05T13:47:08.938Z,18.70
2022-08-05T13:50:16.498Z,19.36
2022-08-05T13:53:19.971Z,19.22
2022-08-05T13:56:22.833Z,19.06
2022-08-05T13:59:26.826Z,18.88
2022-08-05T14:02:31.390Z,18.59
2022-08-05T14:06:04.909Z,18.37
2022-08-05T14:08:59.392Z,18.37
2022-08-05T14:12:17.195Z,18.84
2022-08-05T14:16:06.162Z,18.77
2022-08-05T14:18:44.372Z,18.32
2022-08-05T14:22:09.440Z,18.28
2022-08-05T14:25:19.018Z,17.99
2022-08-05T14:28:27.006Z,18.36
2022-08-05T14:32:02.749Z,18.36
2022-08-05T14:34:54.671Z,18.68
2022-08-05T14:38:01.115Z,19.02
2022-08-05T14:41:07.534Z,18.98
2022-08-05T14:44:19.956Z,18.88
2022-08-05T14:47:58.484Z,19.13
2022-08-05T14:50:47.270Z,18.83
2022-08-05T14:54:26.094Z,19.37
2022-08-05T14:57:14.770Z,18.90
2022-08-05T15:00:19.904Z,19.52
2022-08-05T15:03:23.269Z,19.19
2022-08-05T15:06:27.966Z,19.00
2022-08-05T15:09:52.286Z,18.85
2022-08-05T15:13:03.794Z,18.60
2022-08-05T15:16:07.838Z,18.45
2022-08-05T15:19:23.914Z,19.00
2022-08-05T15:22:28.184Z,18.75
2022-08-05T15:25:51.006Z,18.87
2022-08-05T15:28:54.741Z,18.68
2022-08-05T15:32:02.452Z,18.96
2022-08-05T15:35:10.875Z,19.04
2022-08-05T15:38:36.169Z,19.08
2022-08-05T15:41:57.977Z,18.95
2022-08-05T15:45:01.692Z,18.70
2022-08-05T15:48:05.606Z,18.87
2022-08-05T15:51:09.726Z,19.12
2022-08-05T15:54:15.283Z,19.18
2022-08-05T15:57:19.806Z,19.56
2022-08-05T16:00:26.258Z,19.45
2022-08-05T16:03:50.878Z,20.00
2022-08-05T16:06:55.730Z,19.75
2022-08-05T16:09:59.051Z,19.42
2022-08-05T16:13:01.905Z,19.71
2022-08-05T16:16:06.054Z,19.65
2022-08-05T16:19:09.833Z,19.62
2022-08-05T16:22:13.311Z,19.63
2022-08-05T16:25:18.375Z,20.08
2022-08-05T16:28:21.509Z,20.32
2022-08-05T16:31:27.160Z,20.09
2022-08-05T16:34:50.833Z,20.15
2022-08-05T16:38:10.587Z,20.10
2022-08-05T16:41:29.714Z,20.25
2022-08-05T16:44:40.552Z,20.50
2022-08-05T16:47:54.390Z,20.64
2022-08-05T16:51:00.392Z,20.75
2022-08-05T16:54:09.470Z,21.21
2022-08-05T16:57:48.599Z,21.31
2022-08-05T17:00:49.526Z,21.33
2022-08-05T17:03:52.826Z,21.58
2022-08-05T17:07:00.350Z,21.77
2022-08-05T17:10:04.456Z,22.07
2022-08-05T17:13:16.913Z,22.29
2022-08-05T17:16:32.702Z,22.49
2022-08-05T17:19:36.977Z,22.73
2022-08-05T17:22:39.728Z,22.88
2022-08-05T17:25:43.224Z,23.11
2022-08-05T17:28:47.298Z,23.45
2022-08-05T17:31:58.622Z,23.71
2022-08-05T17:35:02.240Z,24.24
2022-08-05T17:38:09.478Z,24.53
2022-08-05T17:42:16.375Z,25.21
2022-08-05T17:44:36.610Z,26.09
2022-08-05T17:47:39.688Z,26.22
2022-08-05T17:50:42.952Z,26.51
2022-08-05T17:53:50.898Z,26.97
2022-08-05T17:56:58.518Z,27.27
2022-08-05T18:00:05.075Z,27.70
2022-08-05T18:03:09.316Z,28.22
2022-08-05T18:06:15.445Z,28.48
2022-08-05T18:09:18.712Z,28.81
2022-08-05T18:12:24.388Z,29.21
2022-08-05T18:15:28.184Z,29.30
2022-08-05T18:18:39.637Z,29.62
2022-08-05T18:22:08.611Z,29.92
2022-08-05T18:25:06.948Z,30.22
2022-08-05T18:28:10.281Z,30.48
2022-08-05T18:31:13.121Z,30.63
2022-08-05T18:34:21.732Z,30.87
2022-08-05T18:37:34.164Z,31.14
2022-08-05T18:41:55.808Z,31.35
2022-08-05T18:44:07.837Z,31.63
2022-08-05T18:47:12.276Z,31.85
2022-08-05T18:50:42.223Z,32.19
2022-08-05T18:53:50.452Z,32.38
2022-08-05T18:56:53.429Z,32.70
2022-08-05T19:00:02.984Z,32.92
2022-08-05T19:03:07.087Z,33.03
2022-08-05T19:06:20.061Z,33.40
2022-08-05T19:14:37.539Z,33.86
2022-08-05T19:17:59.584Z,34.00
2022-08-05T19:20:53.275Z,34.42
2022-08-05T19:24:07.035Z,34.49
2022-08-05T19:27:11.638Z,34.70
2022-08-05T19:30:17.249Z,34.92
2022-08-05T19:33:35.425Z,35.29
2022-08-05T19:36:39.505Z,35.47
2022-08-05T19:39:51.444Z,35.90
2022-08-05T19:43:00.770Z,36.78
2022-08-05T19:46:16.841Z,37.19
2022-08-05T19:49:31.499Z,37.44
2022-08-05T19:52:34.136Z,37.77
2022-08-05T19:56:14.123Z,37.81
2022-08-05T19:59:51.136Z,38.05
2022-08-05T20:02:27.691Z,38.35
2022-08-05T20:05:50.292Z,38.58
2022-08-05T20:08:53.944Z,38.70
2022-08-05T20:11:59.263Z,38.82
2022-08-05T20:15:06.391Z,39.06
2022-08-05T20:18:32.665Z,39.16
2022-08-05T20:21:34.726Z,39.59
2022-08-05T20:24:40.816Z,39.75
2022-08-05T20:27:43.579Z,39.76
2022-08-05T20:30:47.920Z,39.94
2022-08-05T20:33:53.037Z,40.14
2022-08-05T20:36:56.937Z,40.23
2022-08-05T20:40:00.199Z,40.53
2022-08-05T20:43:04.657Z,40.94
2022-08-05T20:46:10.217Z,41.12
2022-08-05T20:49:23.899Z,41.22
2022-08-05T20:52:27.551Z,41.50
2022-08-05T20:56:07.456Z,41.33
2022-08-05T20:58:53.391Z,41.67
2022-08-05T21:01:58.059Z,42.03
2022-08-05T21:05:02.627Z,42.10
2022-08-05T21:08:06.338Z,42.48
2022-08-05T21:11:11.880Z,42.42
2022-08-05T21:14:15.308Z,42.60
2022-08-05T21:17:18.064Z,42.62
2022-08-05T21:20:32.784Z,43.13
2022-08-05T21:23:37.497Z,43.42
2022-08-05T21:26:44.110Z,43.32
2022-08-05T21:29:50.932Z,43.97
2022-08-05T21:32:53.980Z,43.59
2022-08-05T21:35:58.805Z,43.52
2022-08-05T21:39:02.040Z,44.09
2022-08-05T21:42:38.926Z,44.29
2022-08-05T21:45:56.511Z,44.52
2022-08-05T21:48:56.814Z,44.15
2022-08-05T21:52:22.826Z,44.29
2022-08-05T21:56:01.631Z,44.34
2022-08-05T21:58:57.778Z,44.46
2022-08-05T22:02:00.660Z,44.26
2022-08-05T22:05:06.170Z,44.39
2022-08-05T22:08:21.969Z,44.40
2022-08-05T22:11:35.145Z,44.53
2022-08-05T22:14:38.844Z,44.71
2022-08-05T22:17:48.683Z,44.79
2022-08-05T22:20:59.360Z,45.13
2022-08-05T22:24:40.841Z,45.35
2022-08-05T22:28:11.009Z,45.55
2022-08-05T22:31:14.369Z,45.72
2022-08-05T22:34:20.195Z,46.14
2022-08-05T22:37:58.468Z,46.15
2022-08-05T22:40:56.291Z,46.38
2022-08-05T22:43:59.779Z,46.28
2022-08-05T22:47:05.742Z,46.69
2022-08-05T22:50:19.663Z,46.83
2022-08-05T22:53:24.617Z,46.89
2022-08-05T22:56:40.001Z,47.07
2022-08-05T22:59:51.777Z,46.94
2022-08-05T23:02:58.065Z,47.17
2022-08-05T23:06:01.002Z,47.76
2022-08-05T23:09:27.997Z,47.81
2022-08-05T23:12:28.589Z,47.80
2022-08-05T23:15:34.989Z,48.11
2022-08-05T23:18:38.555Z,48.65
2022-08-05T23:21:42.890Z,48.70
2022-08-05T23:24:51.383Z,48.65
2022-08-05T23:27:57.603Z,48.80
2022-08-05T23:31:16.177Z,49.06
2022-08-05T23:34:24.877Z,49.15
2022-08-05T23:37:36.569Z,49.24
2022-08-05T23:40:40.634Z,49.38
2022-08-05T23:44:05.086Z,49.70
2022-08-05T23:47:14.676Z,49.41
2022-08-05T23:50:20.301Z,49.57
2022-08-05T23:53:23.393Z,49.74
2022-08-05T23:56:31.192Z,49.51
